Terminal Aerodrome Forecast
Issued by NWS

Home | Current Version | Previous Version | Text Only | Print | Product List | Glossary On
Versions: 1 2 3 4 5 6 7 8 9 10 11 12 13 14 15 16
000
FTUS44 KBMX 241135
TAFANB
TAF
KANB 241135Z 2412/2512 VRB02KT P6SM SCT050 SCT250
     FM241800 17006KT P6SM VCTS BKN050CB
     FM250000 VRB02KT P6SM SCT250=

USA.gov is the U.S. government's official web portal to all federal, state and local government web resources and services.